Terminal Aerodrome Forecast
Issued by NWS

Home | Current Version | Previous Version | Text Only | Print | Product List | Glossary On
Versions: 1 2 3 4 5 6 7 8 9 10 11 12 13 14 15
000
FTUS42 TJSJ 171740
TAFJMZ
TAF
TJMZ 171740Z 1718/1818 09015KT P6SM FEW030 SCT040
     FM172300 07008KT P6SM FEW025 SCT070
     FM181430 10012KT P6SM VCSH SCT030
      AMD NOT SKED=

USA.gov is the U.S. government's official web portal to all federal, state and local government web resources and services.